sensor_id;sensor_type;location;lat;lon;timestamp;pressure;altitude;pressure_sealevel;temperature
29423;BMP180;16399;51.686;8.684;2023-02-08T00:01:54;102253.00;;;-1.70
29423;BMP180;16399;51.686;8.684;2023-02-08T00:04:56;102249.00;;;-1.70
29423;BMP180;16399;51.686;8.684;2023-02-08T00:07:58;102246.00;;;-1.70
29423;BMP180;16399;51.686;8.684;2023-02-08T00:11:01;102254.00;;;-1.70
29423;BMP180;16399;51.686;8.684;2023-02-08T00:14:04;102236.00;;;-1.70
29423;BMP180;16399;51.686;8.684;2023-02-08T00:17:06;102251.00;;;-1.70
29423;BMP180;16399;51.686;8.684;2023-02-08T00:20:10;102236.00;;;-1.70
29423;BMP180;16399;51.686;8.684;2023-02-08T00:23:13;102240.00;;;-1.70
29423;BMP180;16399;51.686;8.684;2023-02-08T00:26:16;102233.00;;;-1.70
29423;BMP180;16399;51.686;8.684;2023-02-08T00:29:18;102234.00;;;-1.70
29423;BMP180;16399;51.686;8.684;2023-02-08T00:32:20;102238.00;;;-1.70
29423;BMP180;16399;51.686;8.684;2023-02-08T00:35:23;102241.00;;;-1.70
29423;BMP180;16399;51.686;8.684;2023-02-08T00:38:25;102227.00;;;-1.80
29423;BMP180;16399;51.686;8.684;2023-02-08T00:41:28;102222.00;;;-1.80
29423;BMP180;16399;51.686;8.684;2023-02-08T00:44:30;102215.00;;;-1.80
29423;BMP180;16399;51.686;8.684;2023-02-08T00:47:32;102223.00;;;-1.80
29423;BMP180;16399;51.686;8.684;2023-02-08T00:50:35;102215.00;;;-1.80
29423;BMP180;16399;51.686;8.684;2023-02-08T00:53:38;102214.00;;;-1.80
29423;BMP180;16399;51.686;8.684;2023-02-08T00:56:41;102214.00;;;-1.80
29423;BMP180;16399;51.686;8.684;2023-02-08T00:59:43;102218.00;;;-1.80
29423;BMP180;16399;51.686;8.684;2023-02-08T01:02:46;102198.00;;;-1.80
29423;BMP180;16399;51.686;8.684;2023-02-08T01:05:48;102206.00;;;-1.70
29423;BMP180;16399;51.686;8.684;2023-02-08T01:08:51;102204.00;;;-1.60
29423;BMP180;16399;51.686;8.684;2023-02-08T01:11:53;102197.00;;;-1.60
29423;BMP180;16399;51.686;8.684;2023-02-08T01:14:55;102202.00;;;-1.50
29423;BMP180;16399;51.686;8.684;2023-02-08T01:17:57;102194.00;;;-1.40
29423;BMP180;16399;51.686;8.684;2023-02-08T01:21:05;102196.00;;;-1.30
29423;BMP180;16399;51.686;8.684;2023-02-08T01:24:08;102186.00;;;-1.20
29423;BMP180;16399;51.686;8.684;2023-02-08T01:27:10;102183.00;;;-1.10
29423;BMP180;16399;51.686;8.684;2023-02-08T01:30:12;102184.00;;;-1.10
29423;BMP180;16399;51.686;8.684;2023-02-08T01:33:15;102178.00;;;-1.00
29423;BMP180;16399;51.686;8.684;2023-02-08T01:36:17;102174.00;;;-1.00
29423;BMP180;16399;51.686;8.684;2023-02-08T01:39:20;102170.00;;;-1.00
29423;BMP180;16399;51.686;8.684;2023-02-08T01:42:22;102173.00;;;-1.00
29423;BMP180;16399;51.686;8.684;2023-02-08T01:45:27;102175.00;;;-1.00
29423;BMP180;16399;51.686;8.684;2023-02-08T01:48:36;102180.00;;;-1.10
29423;BMP180;16399;51.686;8.684;2023-02-08T01:51:43;102170.00;;;-1.10
29423;BMP180;16399;51.686;8.684;2023-02-08T01:54:50;102177.00;;;-1.10
29423;BMP180;16399;51.686;8.684;2023-02-08T01:57:54;102179.00;;;-1.20
29423;BMP180;16399;51.686;8.684;2023-02-08T02:00:59;102192.00;;;-1.30
29423;BMP180;16399;51.686;8.684;2023-02-08T02:04:02;102193.00;;;-1.30
29423;BMP180;16399;51.686;8.684;2023-02-08T02:07:06;102191.00;;;-1.40
29423;BMP180;16399;51.686;8.684;2023-02-08T02:10:31;102192.00;;;-1.50
29423;BMP180;16399;51.686;8.684;2023-02-08T02:13:30;102201.00;;;-1.60
29423;BMP180;16399;51.686;8.684;2023-02-08T02:16:33;102209.00;;;-1.60
29423;BMP180;16399;51.686;8.684;2023-02-08T02:19:45;102201.00;;;-1.60
29423;BMP180;16399;51.686;8.684;2023-02-08T02:29:21;102213.00;;;-1.50
29423;BMP180;16399;51.686;8.684;2023-02-08T02:35:59;102194.00;;;-1.50
29423;BMP180;16399;51.686;8.684;2023-02-08T02:39:21;102194.00;;;-1.60
29423;BMP180;16399;51.686;8.684;2023-02-08T02:46:25;102202.00;;;-1.60
29423;BMP180;16399;51.686;8.684;2023-02-08T02:53:06;102211.00;;;-1.70
29423;BMP180;16399;51.686;8.684;2023-02-08T02:56:18;102196.00;;;-1.80
29423;BMP180;16399;51.686;8.684;2023-02-08T02:59:17;102191.00;;;-1.80
29423;BMP180;16399;51.686;8.684;2023-02-08T03:02:21;102197.00;;;-1.90
29423;BMP180;16399;51.686;8.684;2023-02-08T03:05:24;102196.00;;;-1.90
29423;BMP180;16399;51.686;8.684;2023-02-08T03:08:48;102180.00;;;-1.90
29423;BMP180;16399;51.686;8.684;2023-02-08T03:11:50;102177.00;;;-2.00
29423;BMP180;16399;51.686;8.684;2023-02-08T03:18:28;102181.00;;;-2.00
29423;BMP180;16399;51.686;8.684;2023-02-08T03:21:55;102180.00;;;-2.00
29423;BMP180;16399;51.686;8.684;2023-02-08T03:25:01;102177.00;;;-2.00
29423;BMP180;16399;51.686;8.684;2023-02-08T03:28:47;102177.00;;;-2.10
29423;BMP180;16399;51.686;8.684;2023-02-08T03:31:31;102164.00;;;-2.10
29423;BMP180;16399;51.686;8.684;2023-02-08T03:34:46;102178.00;;;-2.20
29423;BMP180;16399;51.686;8.684;2023-02-08T03:37:54;102175.00;;;-2.20
29423;BMP180;16399;51.686;8.684;2023-02-08T03:40:58;102154.00;;;-2.20
29423;BMP180;16399;51.686;8.684;2023-02-08T03:44:03;102161.00;;;-2.20
29423;BMP180;16399;51.686;8.684;2023-02-08T03:47:09;102158.00;;;-2.20
29423;BMP180;16399;51.686;8.684;2023-02-08T03:50:13;102157.00;;;-2.20
29423;BMP180;16399;51.686;8.684;2023-02-08T03:53:19;102151.00;;;-2.10
29423;BMP180;16399;51.686;8.684;2023-02-08T03:56:34;102160.00;;;-2.10
29423;BMP180;16399;51.686;8.684;2023-02-08T03:59:39;102143.00;;;-2.10
29423;BMP180;16399;51.686;8.684;2023-02-08T04:03:07;102157.00;;;-2.10
29423;BMP180;16399;51.686;8.684;2023-02-08T04:06:04;102160.00;;;-2.10
29423;BMP180;16399;51.686;8.684;2023-02-08T04:09:07;102152.00;;;-2.10
29423;BMP180;16399;51.686;8.684;2023-02-08T04:12:09;102139.00;;;-2.00
29423;BMP180;16399;51.686;8.684;2023-02-08T04:15:12;102150.00;;;-1.90
29423;BMP180;16399;51.686;8.684;2023-02-08T04:18:14;102142.00;;;-1.80
29423;BMP180;16399;51.686;8.684;2023-02-08T04:21:17;102151.00;;;-1.80
29423;BMP180;16399;51.686;8.684;2023-02-08T04:24:19;102142.00;;;-1.80
29423;BMP180;16399;51.686;8.684;2023-02-08T04:27:21;102140.00;;;-1.70
29423;BMP180;16399;51.686;8.684;2023-02-08T04:30:23;102148.00;;;-1.70
29423;BMP180;16399;51.686;8.684;2023-02-08T04:33:26;102154.00;;;-1.70
29423;BMP180;16399;51.686;8.684;2023-02-08T04:36:28;102144.00;;;-1.70
29423;BMP180;16399;51.686;8.684;2023-02-08T04:39:30;102152.00;;;-1.60
29423;BMP180;16399;51.686;8.684;2023-02-08T04:42:33;102147.00;;;-1.60
29423;BMP180;16399;51.686;8.684;2023-02-08T04:45:35;102150.00;;;-1.60
29423;BMP180;16399;51.686;8.684;2023-02-08T04:48:38;102150.00;;;-1.60
29423;BMP180;16399;51.686;8.684;2023-02-08T04:51:40;102154.00;;;-1.60
29423;BMP180;16399;51.686;8.684;2023-02-08T04:54:42;102152.00;;;-1.60
29423;BMP180;16399;51.686;8.684;2023-02-08T04:57:44;102160.00;;;-1.70
29423;BMP180;16399;51.686;8.684;2023-02-08T05:00:47;102163.00;;;-1.70
29423;BMP180;16399;51.686;8.684;2023-02-08T05:03:49;102171.00;;;-1.80
29423;BMP180;16399;51.686;8.684;2023-02-08T05:06:51;102173.00;;;-1.80
29423;BMP180;16399;51.686;8.684;2023-02-08T05:09:54;102154.00;;;-1.80
29423;BMP180;16399;51.686;8.684;2023-02-08T05:12:56;102162.00;;;-1.90
29423;BMP180;16399;51.686;8.684;2023-02-08T05:15:58;102168.00;;;-1.90
29423;BMP180;16399;51.686;8.684;2023-02-08T05:19:00;102156.00;;;-1.90
29423;BMP180;16399;51.686;8.684;2023-02-08T05:22:03;102171.00;;;-2.00
29423;BMP180;16399;51.686;8.684;2023-02-08T05:25:05;102174.00;;;-2.00
29423;BMP180;16399;51.686;8.684;2023-02-08T05:28:08;102170.00;;;-2.00
29423;BMP180;16399;51.686;8.684;2023-02-08T05:31:11;102172.00;;;-2.10
29423;BMP180;16399;51.686;8.684;2023-02-08T05:34:14;102175.00;;;-2.10
29423;BMP180;16399;51.686;8.684;2023-02-08T05:37:16;102182.00;;;-2.10
29423;BMP180;16399;51.686;8.684;2023-02-08T05:40:18;102185.00;;;-2.20
29423;BMP180;16399;51.686;8.684;2023-02-08T05:43:21;102181.00;;;-2.20
29423;BMP180;16399;51.686;8.684;2023-02-08T05:46:23;102184.00;;;-2.20
29423;BMP180;16399;51.686;8.684;2023-02-08T05:49:25;102189.00;;;-2.20
29423;BMP180;16399;51.686;8.684;2023-02-08T05:52:28;102191.00;;;-2.20
29423;BMP180;16399;51.686;8.684;2023-02-08T05:55:30;102185.00;;;-2.20
29423;BMP180;16399;51.686;8.684;2023-02-08T05:58:33;102187.00;;;-2.10
29423;BMP180;16399;51.686;8.684;2023-02-08T06:01:36;102183.00;;;-2.10
29423;BMP180;16399;51.686;8.684;2023-02-08T06:04:38;102183.00;;;-2.10
29423;BMP180;16399;51.686;8.684;2023-02-08T06:07:40;102174.00;;;-2.10
29423;BMP180;16399;51.686;8.684;2023-02-08T06:10:42;102179.00;;;-2.10
29423;BMP180;16399;51.686;8.684;2023-02-08T06:13:46;102180.00;;;-2.10
29423;BMP180;16399;51.686;8.684;2023-02-08T06:16:48;102180.00;;;-2.10
29423;BMP180;16399;51.686;8.684;2023-02-08T06:19:51;102185.00;;;-2.10
29423;BMP180;16399;51.686;8.684;2023-02-08T06:22:54;102184.00;;;-2.10
29423;BMP180;16399;51.686;8.684;2023-02-08T06:25:56;102196.00;;;-2.10
29423;BMP180;16399;51.686;8.684;2023-02-08T06:28:59;102187.00;;;-2.10
29423;BMP180;16399;51.686;8.684;2023-02-08T06:32:01;102195.00;;;-2.10
29423;BMP180;16399;51.686;8.684;2023-02-08T06:35:04;102189.00;;;-2.10
29423;BMP180;16399;51.686;8.684;2023-02-08T06:38:06;102191.00;;;-2.10
29423;BMP180;16399;51.686;8.684;2023-02-08T06:41:08;102192.00;;;-2.10
29423;BMP180;16399;51.686;8.684;2023-02-08T06:44:11;102193.00;;;-2.10
29423;BMP180;16399;51.686;8.684;2023-02-08T06:47:13;102180.00;;;-2.10
29423;BMP180;16399;51.686;8.684;2023-02-08T06:50:15;102180.00;;;-2.00
29423;BMP180;16399;51.686;8.684;2023-02-08T06:53:18;102176.00;;;-2.00
29423;BMP180;16399;51.686;8.684;2023-02-08T06:56:20;102177.00;;;-1.90
29423;BMP180;16399;51.686;8.684;2023-02-08T06:59:22;102183.00;;;-1.90
29423;BMP180;16399;51.686;8.684;2023-02-08T07:02:24;102183.00;;;-1.90
29423;BMP180;16399;51.686;8.684;2023-02-08T07:05:27;102186.00;;;-1.80
29423;BMP180;16399;51.686;8.684;2023-02-08T07:08:31;102186.00;;;-1.80
29423;BMP180;16399;51.686;8.684;2023-02-08T07:11:33;102192.00;;;-1.80
29423;BMP180;16399;51.686;8.684;2023-02-08T07:14:38;102178.00;;;-1.80
29423;BMP180;16399;51.686;8.684;2023-02-08T07:17:39;102178.00;;;-1.80
29423;BMP180;16399;51.686;8.684;2023-02-08T07:20:41;102185.00;;;-1.80
29423;BMP180;16399;51.686;8.684;2023-02-08T07:23:44;102177.00;;;-1.80
29423;BMP180;16399;51.686;8.684;2023-02-08T07:26:46;102166.00;;;-1.80
29423;BMP180;16399;51.686;8.684;2023-02-08T07:29:48;102172.00;;;-1.80
29423;BMP180;16399;51.686;8.684;2023-02-08T07:32:50;102165.00;;;-1.70
29423;BMP180;16399;51.686;8.684;2023-02-08T07:35:53;102157.00;;;-1.70
29423;BMP180;16399;51.686;8.684;2023-02-08T07:38:55;102153.00;;;-1.60
29423;BMP180;16399;51.686;8.684;2023-02-08T07:41:58;102160.00;;;-1.60
29423;BMP180;16399;51.686;8.684;2023-02-08T07:45:00;102159.00;;;-1.50
29423;BMP180;16399;51.686;8.684;2023-02-08T07:48:04;102151.00;;;-1.40
29423;BMP180;16399;51.686;8.684;2023-02-08T07:51:07;102153.00;;;-1.30
29423;BMP180;16399;51.686;8.684;2023-02-08T07:54:09;102158.00;;;-1.20
29423;BMP180;16399;51.686;8.684;2023-02-08T07:57:12;102155.00;;;-1.10
29423;BMP180;16399;51.686;8.684;2023-02-08T08:00:17;102155.00;;;-1.00
29423;BMP180;16399;51.686;8.684;2023-02-08T08:03:20;102147.00;;;-0.90
29423;BMP180;16399;51.686;8.684;2023-02-08T08:06:22;102140.00;;;-0.90
29423;BMP180;16399;51.686;8.684;2023-02-08T08:09:25;102143.00;;;-0.70
29423;BMP180;16399;51.686;8.684;2023-02-08T08:12:27;102145.00;;;-0.60
29423;BMP180;16399;51.686;8.684;2023-02-08T08:15:29;102138.00;;;-0.50
29423;BMP180;16399;51.686;8.684;2023-02-08T08:18:32;102138.00;;;-0.30
29423;BMP180;16399;51.686;8.684;2023-02-08T08:21:34;102143.00;;;-0.10
29423;BMP180;16399;51.686;8.684;2023-02-08T08:24:36;102129.00;;;0.10
29423;BMP180;16399;51.686;8.684;2023-02-08T08:27:39;102121.00;;;0.30
29423;BMP180;16399;51.686;8.684;2023-02-08T08:30:43;102117.00;;;0.50
29423;BMP180;16399;51.686;8.684;2023-02-08T08:33:45;102114.00;;;0.70
29423;BMP180;16399;51.686;8.684;2023-02-08T08:36:47;102110.00;;;1.00
29423;BMP180;16399;51.686;8.684;2023-02-08T08:39:50;102111.00;;;1.10
29423;BMP180;16399;51.686;8.684;2023-02-08T08:42:52;102099.00;;;1.30
29423;BMP180;16399;51.686;8.684;2023-02-08T08:45:54;102090.00;;;1.50
29423;BMP180;16399;51.686;8.684;2023-02-08T08:48:57;102085.00;;;1.50
29423;BMP180;16399;51.686;8.684;2023-02-08T08:51:59;102090.00;;;1.60
29423;BMP180;16399;51.686;8.684;2023-02-08T08:55:02;102104.00;;;1.60
29423;BMP180;16399;51.686;8.684;2023-02-08T08:58:04;102101.00;;;1.70
29423;BMP180;16399;51.686;8.684;2023-02-08T09:01:06;102088.00;;;1.70
29423;BMP180;16399;51.686;8.684;2023-02-08T09:04:09;102091.00;;;1.70
29423;BMP180;16399;51.686;8.684;2023-02-08T09:07:12;102092.00;;;1.70
29423;BMP180;16399;51.686;8.684;2023-02-08T09:10:14;102086.00;;;1.80
29423;BMP180;16399;51.686;8.684;2023-02-08T09:13:17;102084.00;;;1.80
29423;BMP180;16399;51.686;8.684;2023-02-08T09:16:20;102090.00;;;1.90
29423;BMP180;16399;51.686;8.684;2023-02-08T09:19:23;102091.00;;;1.90
29423;BMP180;16399;51.686;8.684;2023-02-08T09:22:25;102095.00;;;2.00
29423;BMP180;16399;51.686;8.684;2023-02-08T09:25:27;102097.00;;;2.10
29423;BMP180;16399;51.686;8.684;2023-02-08T09:28:30;102101.00;;;2.20
29423;BMP180;16399;51.686;8.684;2023-02-08T09:31:34;102097.00;;;2.20
29423;BMP180;16399;51.686;8.684;2023-02-08T09:34:37;102100.00;;;2.40
29423;BMP180;16399;51.686;8.684;2023-02-08T09:37:40;102097.00;;;2.50
29423;BMP180;16399;51.686;8.684;2023-02-08T09:47:19;102092.00;;;2.70
29423;BMP180;16399;51.686;8.684;2023-02-08T09:50:44;102087.00;;;2.80
29423;BMP180;16399;51.686;8.684;2023-02-08T09:53:40;102080.00;;;2.90
29423;BMP180;16399;51.686;8.684;2023-02-08T09:56:44;102077.00;;;3.00
29423;BMP180;16399;51.686;8.684;2023-02-08T09:59:56;102074.00;;;3.00
29423;BMP180;16399;51.686;8.684;2023-02-08T10:03:01;102079.00;;;3.10
29423;BMP180;16399;51.686;8.684;2023-02-08T10:06:06;102068.00;;;3.20
29423;BMP180;16399;51.686;8.684;2023-02-08T10:09:11;102052.00;;;3.30
29423;BMP180;16399;51.686;8.684;2023-02-08T10:12:26;102071.00;;;3.30
29423;BMP180;16399;51.686;8.684;2023-02-08T10:18:36;102070.00;;;3.50
29423;BMP180;16399;51.686;8.684;2023-02-08T10:21:51;102073.00;;;3.50
29423;BMP180;16399;51.686;8.684;2023-02-08T10:24:57;102076.00;;;3.70
29423;BMP180;16399;51.686;8.684;2023-02-08T10:28:15;102066.00;;;3.70
29423;BMP180;16399;51.686;8.684;2023-02-08T10:34:57;102059.00;;;3.80
29423;BMP180;16399;51.686;8.684;2023-02-08T10:37:59;102051.00;;;3.90
29423;BMP180;16399;51.686;8.684;2023-02-08T10:41:03;102057.00;;;4.00
29423;BMP180;16399;51.686;8.684;2023-02-08T10:44:25;102063.00;;;4.10
29423;BMP180;16399;51.686;8.684;2023-02-08T10:47:45;102047.00;;;4.20
29423;BMP180;16399;51.686;8.684;2023-02-08T10:50:49;102058.00;;;4.40
29423;BMP180;16399;51.686;8.684;2023-02-08T10:53:51;102045.00;;;4.50
29423;BMP180;16399;51.686;8.684;2023-02-08T10:57:01;102049.00;;;4.70
29423;BMP180;16399;51.686;8.684;2023-02-08T11:00:10;102035.00;;;4.90
29423;BMP180;16399;51.686;8.684;2023-02-08T11:03:24;102028.00;;;5.00
29423;BMP180;16399;51.686;8.684;2023-02-08T11:06:27;102028.00;;;5.10
29423;BMP180;16399;51.686;8.684;2023-02-08T11:09:30;102023.00;;;5.20
29423;BMP180;16399;51.686;8.684;2023-02-08T11:12:33;102023.00;;;5.40
29423;BMP180;16399;51.686;8.684;2023-02-08T11:15:44;102012.00;;;5.40
29423;BMP180;16399;51.686;8.684;2023-02-08T11:18:51;102004.00;;;5.60
29423;BMP180;16399;51.686;8.684;2023-02-08T11:21:56;102009.00;;;5.70
29423;BMP180;16399;51.686;8.684;2023-02-08T11:25:03;102004.00;;;5.90
29423;BMP180;16399;51.686;8.684;2023-02-08T11:28:20;102000.00;;;6.00
29423;BMP180;16399;51.686;8.684;2023-02-08T11:31:19;101992.00;;;6.20
29423;BMP180;16399;51.686;8.684;2023-02-08T11:34:24;101994.00;;;6.30
29423;BMP180;16399;51.686;8.684;2023-02-08T11:37:27;101982.00;;;6.40
29423;BMP180;16399;51.686;8.684;2023-02-08T11:40:33;101984.00;;;6.50
29423;BMP180;16399;51.686;8.684;2023-02-08T11:43:35;101982.00;;;6.70
29423;BMP180;16399;51.686;8.684;2023-02-08T11:46:37;101982.00;;;6.70
29423;BMP180;16399;51.686;8.684;2023-02-08T11:49:45;101982.00;;;6.90
29423;BMP180;16399;51.686;8.684;2023-02-08T11:52:50;101980.00;;;6.90
29423;BMP180;16399;51.686;8.684;2023-02-08T11:56:20;101972.00;;;6.90
29423;BMP180;16399;51.686;8.684;2023-02-08T11:59:23;101974.00;;;7.00
29423;BMP180;16399;51.686;8.684;2023-02-08T12:02:33;101962.00;;;7.00
29423;BMP180;16399;51.686;8.684;2023-02-08T12:05:42;101968.00;;;7.00
29423;BMP180;16399;51.686;8.684;2023-02-08T12:12:30;101958.00;;;7.00
29423;BMP180;16399;51.686;8.684;2023-02-08T12:15:38;101962.00;;;7.00
29423;BMP180;16399;51.686;8.684;2023-02-08T12:22:00;101959.00;;;7.30
29423;BMP180;16399;51.686;8.684;2023-02-08T12:25:28;101945.00;;;7.50
29423;BMP180;16399;51.686;8.684;2023-02-08T12:34:59;101941.00;;;7.60
29423;BMP180;16399;51.686;8.684;2023-02-08T12:38:22;101943.00;;;7.80
29423;BMP180;16399;51.686;8.684;2023-02-08T12:45:12;101929.00;;;7.80
29423;BMP180;16399;51.686;8.684;2023-02-08T12:48:31;101926.00;;;7.90
29423;BMP180;16399;51.686;8.684;2023-02-08T12:51:47;101918.00;;;7.80
29423;BMP180;16399;51.686;8.684;2023-02-08T12:55:04;101914.00;;;7.90
29423;BMP180;16399;51.686;8.684;2023-02-08T13:01:17;101902.00;;;8.00
29423;BMP180;16399;51.686;8.684;2023-02-08T13:04:29;101902.00;;;8.10
29423;BMP180;16399;51.686;8.684;2023-02-08T13:07:37;101897.00;;;8.10
29423;BMP180;16399;51.686;8.684;2023-02-08T13:10:40;101897.00;;;8.00
29423;BMP180;16399;51.686;8.684;2023-02-08T13:13:54;101905.00;;;8.00
29423;BMP180;16399;51.686;8.684;2023-02-08T13:16:51;101899.00;;;8.00
29423;BMP180;16399;51.686;8.684;2023-02-08T13:19:59;101898.00;;;8.00
29423;BMP180;16399;51.686;8.684;2023-02-08T13:23:05;101895.00;;;7.90
29423;BMP180;16399;51.686;8.684;2023-02-08T13:26:15;101885.00;;;7.90
29423;BMP180;16399;51.686;8.684;2023-02-08T13:29:19;101884.00;;;7.90
29423;BMP180;16399;51.686;8.684;2023-02-08T13:32:30;101880.00;;;7.80
29423;BMP180;16399;51.686;8.684;2023-02-08T13:35:33;101874.00;;;7.80
29423;BMP180;16399;51.686;8.684;2023-02-08T13:38:36;101879.00;;;7.80
29423;BMP180;16399;51.686;8.684;2023-02-08T13:41:47;101876.00;;;7.80
29423;BMP180;16399;51.686;8.684;2023-02-08T13:44:48;101865.00;;;7.80
29423;BMP180;16399;51.686;8.684;2023-02-08T13:48:00;101870.00;;;7.80
29423;BMP180;16399;51.686;8.684;2023-02-08T13:50:59;101859.00;;;7.80
29423;BMP180;16399;51.686;8.684;2023-02-08T13:54:10;101850.00;;;7.80
29423;BMP180;16399;51.686;8.684;2023-02-08T14:10:41;101843.00;;;7.80
29423;BMP180;16399;51.686;8.684;2023-02-08T14:13:51;101845.00;;;7.90
29423;BMP180;16399;51.686;8.684;2023-02-08T14:20:13;101826.00;;;7.80
29423;BMP180;16399;51.686;8.684;2023-02-08T14:23:25;101829.00;;;7.80
29423;BMP180;16399;51.686;8.684;2023-02-08T14:26:28;101829.00;;;7.80
29423;BMP180;16399;51.686;8.684;2023-02-08T14:29:31;101826.00;;;7.80
29423;BMP180;16399;51.686;8.684;2023-02-08T14:32:36;101824.00;;;7.80
29423;BMP180;16399;51.686;8.684;2023-02-08T14:35:41;101825.00;;;7.80
29423;BMP180;16399;51.686;8.684;2023-02-08T14:38:49;101820.00;;;7.70
29423;BMP180;16399;51.686;8.684;2023-02-08T14:41:57;101813.00;;;7.70
29423;BMP180;16399;51.686;8.684;2023-02-08T14:45:16;101814.00;;;7.60
29423;BMP180;16399;51.686;8.684;2023-02-08T14:48:41;101824.00;;;7.50
29423;BMP180;16399;51.686;8.684;2023-02-08T14:51:46;101822.00;;;7.50
29423;BMP180;16399;51.686;8.684;2023-02-08T14:54:52;101816.00;;;7.40
29423;BMP180;16399;51.686;8.684;2023-02-08T14:57:54;101822.00;;;7.30
29423;BMP180;16399;51.686;8.684;2023-02-08T15:00:59;101822.00;;;7.30
29423;BMP180;16399;51.686;8.684;2023-02-08T15:04:02;101810.00;;;7.20
29423;BMP180;16399;51.686;8.684;2023-02-08T15:07:20;101807.00;;;7.20
29423;BMP180;16399;51.686;8.684;2023-02-08T15:10:23;101805.00;;;7.10
29423;BMP180;16399;51.686;8.684;2023-02-08T15:13:25;101804.00;;;6.90
29423;BMP180;16399;51.686;8.684;2023-02-08T15:16:42;101805.00;;;6.90
29423;BMP180;16399;51.686;8.684;2023-02-08T15:19:45;101801.00;;;6.80
29423;BMP180;16399;51.686;8.684;2023-02-08T15:22:55;101800.00;;;6.70
29423;BMP180;16399;51.686;8.684;2023-02-08T15:25:59;101796.00;;;6.60
29423;BMP180;16399;51.686;8.684;2023-02-08T15:29:00;101792.00;;;6.50
29423;BMP180;16399;51.686;8.684;2023-02-08T15:32:02;101800.00;;;6.40
29423;BMP180;16399;51.686;8.684;2023-02-08T15:35:05;101795.00;;;6.30
29423;BMP180;16399;51.686;8.684;2023-02-08T15:38:17;101793.00;;;6.20
29423;BMP180;16399;51.686;8.684;2023-02-08T15:41:32;101788.00;;;6.10
29423;BMP180;16399;51.686;8.684;2023-02-08T15:44:34;101789.00;;;6.00
29423;BMP180;16399;51.686;8.684;2023-02-08T15:47:36;101785.00;;;5.80
29423;BMP180;16399;51.686;8.684;2023-02-08T15:50:40;101786.00;;;5.70
29423;BMP180;16399;51.686;8.684;2023-02-08T15:53:44;101793.00;;;5.60
29423;BMP180;16399;51.686;8.684;2023-02-08T15:56:54;101789.00;;;5.50
29423;BMP180;16399;51.686;8.684;2023-02-08T15:59:52;101775.00;;;5.40
29423;BMP180;16399;51.686;8.684;2023-02-08T16:03:00;101784.00;;;5.30
29423;BMP180;16399;51.686;8.684;2023-02-08T16:06:05;101787.00;;;5.10
29423;BMP180;16399;51.686;8.684;2023-02-08T16:09:15;101788.00;;;5.00
29423;BMP180;16399;51.686;8.684;2023-02-08T16:12:21;101775.00;;;4.80
29423;BMP180;16399;51.686;8.684;2023-02-08T16:15:42;101771.00;;;4.70
29423;BMP180;16399;51.686;8.684;2023-02-08T16:18:47;101762.00;;;4.50
29423;BMP180;16399;51.686;8.684;2023-02-08T16:21:54;101764.00;;;4.30
29423;BMP180;16399;51.686;8.684;2023-02-08T16:28:29;101773.00;;;4.00
29423;BMP180;16399;51.686;8.684;2023-02-08T16:31:33;101763.00;;;3.90
29423;BMP180;16399;51.686;8.684;2023-02-08T16:34:36;101773.00;;;3.70
29423;BMP180;16399;51.686;8.684;2023-02-08T16:37:39;101772.00;;;3.60
29423;BMP180;16399;51.686;8.684;2023-02-08T16:40:46;101790.00;;;3.50
29423;BMP180;16399;51.686;8.684;2023-02-08T16:44:13;101771.00;;;3.40
29423;BMP180;16399;51.686;8.684;2023-02-08T16:47:01;101790.00;;;3.30
29423;BMP180;16399;51.686;8.684;2023-02-08T16:50:05;101784.00;;;3.20
29423;BMP180;16399;51.686;8.684;2023-02-08T16:53:09;101781.00;;;3.20
29423;BMP180;16399;51.686;8.684;2023-02-08T16:56:11;101766.00;;;3.10
29423;BMP180;16399;51.686;8.684;2023-02-08T16:59:13;101766.00;;;3.00
29423;BMP180;16399;51.686;8.684;2023-02-08T17:02:16;101772.00;;;3.00
29423;BMP180;16399;51.686;8.684;2023-02-08T17:05:20;101772.00;;;2.90
29423;BMP180;16399;51.686;8.684;2023-02-08T17:08:23;101767.00;;;2.80
29423;BMP180;16399;51.686;8.684;2023-02-08T17:11:25;101775.00;;;2.70
29423;BMP180;16399;51.686;8.684;2023-02-08T17:14:28;101766.00;;;2.70
29423;BMP180;16399;51.686;8.684;2023-02-08T17:17:30;101772.00;;;2.60
29423;BMP180;16399;51.686;8.684;2023-02-08T17:20:34;101760.00;;;2.60
29423;BMP180;16399;51.686;8.684;2023-02-08T17:23:36;101763.00;;;2.50
29423;BMP180;16399;51.686;8.684;2023-02-08T17:26:41;101760.00;;;2.50
29423;BMP180;16399;51.686;8.684;2023-02-08T17:29:43;101752.00;;;2.40
29423;BMP180;16399;51.686;8.684;2023-02-08T17:32:47;101749.00;;;2.30
29423;BMP180;16399;51.686;8.684;2023-02-08T17:35:50;101758.00;;;2.30
29423;BMP180;16399;51.686;8.684;2023-02-08T17:38:53;101760.00;;;2.20
29423;BMP180;16399;51.686;8.684;2023-02-08T17:41:55;101747.00;;;2.10
29423;BMP180;16399;51.686;8.684;2023-02-08T17:44:58;101754.00;;;2.10
29423;BMP180;16399;51.686;8.684;2023-02-08T17:48:01;101756.00;;;2.00
29423;BMP180;16399;51.686;8.684;2023-02-08T17:51:11;101751.00;;;1.90
29423;BMP180;16399;51.686;8.684;2023-02-08T17:54:16;101751.00;;;1.90
29423;BMP180;16399;51.686;8.684;2023-02-08T17:57:20;101746.00;;;1.80
29423;BMP180;16399;51.686;8.684;2023-02-08T18:00:23;101747.00;;;1.70
29423;BMP180;16399;51.686;8.684;2023-02-08T18:03:26;101741.00;;;1.60
29423;BMP180;16399;51.686;8.684;2023-02-08T18:06:29;101742.00;;;1.50
29423;BMP180;16399;51.686;8.684;2023-02-08T18:09:31;101736.00;;;1.50
29423;BMP180;16399;51.686;8.684;2023-02-08T18:12:35;101732.00;;;1.40
29423;BMP180;16399;51.686;8.684;2023-02-08T18:15:37;101728.00;;;1.40
29423;BMP180;16399;51.686;8.684;2023-02-08T18:18:40;101717.00;;;1.30
29423;BMP180;16399;51.686;8.684;2023-02-08T18:21:42;101717.00;;;1.30
29423;BMP180;16399;51.686;8.684;2023-02-08T18:24:44;101709.00;;;1.30
29423;BMP180;16399;51.686;8.684;2023-02-08T18:27:48;101715.00;;;1.20
29423;BMP180;16399;51.686;8.684;2023-02-08T18:30:51;101711.00;;;1.20
29423;BMP180;16399;51.686;8.684;2023-02-08T18:33:54;101697.00;;;1.20
29423;BMP180;16399;51.686;8.684;2023-02-08T18:36:56;101707.00;;;1.20
29423;BMP180;16399;51.686;8.684;2023-02-08T18:39:59;101700.00;;;1.20
29423;BMP180;16399;51.686;8.684;2023-02-08T18:43:01;101708.00;;;1.20
29423;BMP180;16399;51.686;8.684;2023-02-08T18:46:12;101703.00;;;1.20
29423;BMP180;16399;51.686;8.684;2023-02-08T18:49:12;101699.00;;;1.20
29423;BMP180;16399;51.686;8.684;2023-02-08T18:52:17;101692.00;;;1.20
29423;BMP180;16399;51.686;8.684;2023-02-08T18:55:20;101697.00;;;1.20